sensor_id;sensor_type;location;lat;lon;timestamp;P1;durP1;ratioP1;P2;durP2;ratioP2
49340;SDS011;35209;51.050;13.678;2022-12-07T00:04:35;12.60;;;11.60;;
49340;SDS011;35209;51.050;13.678;2022-12-07T00:09:37;12.68;;;11.57;;
49340;SDS011;35209;51.050;13.678;2022-12-07T00:14:40;14.05;;;12.95;;
49340;SDS011;35209;51.050;13.678;2022-12-07T00:19:41;12.80;;;11.73;;
49340;SDS011;35209;51.050;13.678;2022-12-07T00:24:43;13.65;;;12.50;;
49340;SDS011;35209;51.050;13.678;2022-12-07T00:29:45;11.98;;;10.98;;
49340;SDS011;35209;51.050;13.678;2022-12-07T00:34:46;12.95;;;11.85;;
49340;SDS011;35209;51.050;13.678;2022-12-07T00:39:48;12.23;;;11.20;;
49340;SDS011;35209;51.050;13.678;2022-12-07T00:44:50;13.00;;;11.95;;
49340;SDS011;35209;51.050;13.678;2022-12-07T00:49:52;13.43;;;12.25;;
49340;SDS011;35209;51.050;13.678;2022-12-07T00:54:53;13.35;;;12.05;;
49340;SDS011;35209;51.050;13.678;2022-12-07T00:59:55;15.43;;;14.13;;
49340;SDS011;35209;51.050;13.678;2022-12-07T01:04:59;15.85;;;14.50;;
49340;SDS011;35209;51.050;13.678;2022-12-07T01:10:00;15.43;;;14.05;;
49340;SDS011;35209;51.050;13.678;2022-12-07T01:15:03;15.50;;;14.10;;
49340;SDS011;35209;51.050;13.678;2022-12-07T01:20:05;16.15;;;14.77;;
49340;SDS011;35209;51.050;13.678;2022-12-07T01:25:08;17.52;;;14.35;;
49340;SDS011;35209;51.050;13.678;2022-12-07T01:30:11;15.73;;;14.32;;
49340;SDS011;35209;51.050;13.678;2022-12-07T01:35:13;14.57;;;13.38;;
49340;SDS011;35209;51.050;13.678;2022-12-07T01:40:15;13.77;;;12.57;;
49340;SDS011;35209;51.050;13.678;2022-12-07T01:50:43;15.53;;;14.10;;
49340;SDS011;35209;51.050;13.678;2022-12-07T01:55:49;12.48;;;11.48;;
49340;SDS011;35209;51.050;13.678;2022-12-07T02:00:53;12.48;;;11.45;;
49340;SDS011;35209;51.050;13.678;2022-12-07T02:05:55;10.30;;;9.40;;
49340;SDS011;35209;51.050;13.678;2022-12-07T02:10:58;11.90;;;9.73;;
49340;SDS011;35209;51.050;13.678;2022-12-07T02:26:51;9.63;;;8.85;;
49340;SDS011;35209;51.050;13.678;2022-12-07T02:32:10;9.63;;;8.82;;
49340;SDS011;35209;51.050;13.678;2022-12-07T02:43:08;10.52;;;9.73;;
49340;SDS011;35209;51.050;13.678;2022-12-07T02:48:16;11.52;;;10.52;;
49340;SDS011;35209;51.050;13.678;2022-12-07T03:03:52;12.77;;;11.77;;
49340;SDS011;35209;51.050;13.678;2022-12-07T03:09:15;13.95;;;12.77;;
49340;SDS011;35209;51.050;13.678;2022-12-07T03:14:31;13.65;;;12.60;;
49340;SDS011;35209;51.050;13.678;2022-12-07T03:19:40;14.52;;;13.32;;
49340;SDS011;35209;51.050;13.678;2022-12-07T03:29:59;15.90;;;14.57;;
49340;SDS011;35209;51.050;13.678;2022-12-07T03:35:11;16.10;;;14.77;;
49340;SDS011;35209;51.050;13.678;2022-12-07T03:40:40;16.80;;;15.40;;
49340;SDS011;35209;51.050;13.678;2022-12-07T03:46:02;15.82;;;14.52;;
49340;SDS011;35209;51.050;13.678;2022-12-07T03:51:14;16.35;;;14.93;;
49340;SDS011;35209;51.050;13.678;2022-12-07T03:56:19;16.73;;;15.33;;
49340;SDS011;35209;51.050;13.678;2022-12-07T04:01:23;16.25;;;14.85;;
49340;SDS011;35209;51.050;13.678;2022-12-07T04:06:25;15.55;;;14.15;;
49340;SDS011;35209;51.050;13.678;2022-12-07T04:11:27;16.13;;;14.73;;
49340;SDS011;35209;51.050;13.678;2022-12-07T04:16:29;15.57;;;13.98;;
49340;SDS011;35209;51.050;13.678;2022-12-07T04:21:31;13.60;;;12.50;;
49340;SDS011;35209;51.050;13.678;2022-12-07T04:26:32;14.18;;;12.98;;
49340;SDS011;35209;51.050;13.678;2022-12-07T04:31:34;13.88;;;12.57;;
49340;SDS011;35209;51.050;13.678;2022-12-07T04:36:36;12.80;;;11.60;;
49340;SDS011;35209;51.050;13.678;2022-12-07T04:41:38;12.80;;;11.70;;
49340;SDS011;35209;51.050;13.678;2022-12-07T04:46:40;11.82;;;10.63;;
49340;SDS011;35209;51.050;13.678;2022-12-07T04:51:43;11.45;;;10.45;;
49340;SDS011;35209;51.050;13.678;2022-12-07T04:56:45;10.90;;;9.77;;
49340;SDS011;35209;51.050;13.678;2022-12-07T05:01:47;10.93;;;9.93;;
49340;SDS011;35209;51.050;13.678;2022-12-07T05:06:49;10.98;;;10.00;;
49340;SDS011;35209;51.050;13.678;2022-12-07T05:11:51;10.00;;;9.20;;
49340;SDS011;35209;51.050;13.678;2022-12-07T05:16:52;11.30;;;10.10;;
49340;SDS011;35209;51.050;13.678;2022-12-07T05:21:55;9.90;;;9.07;;
49340;SDS011;35209;51.050;13.678;2022-12-07T05:26:56;10.63;;;9.63;;
49340;SDS011;35209;51.050;13.678;2022-12-07T05:31:58;9.50;;;8.38;;
49340;SDS011;35209;51.050;13.678;2022-12-07T05:36:59;9.65;;;8.00;;
49340;SDS011;35209;51.050;13.678;2022-12-07T05:42:01;7.88;;;7.18;;
49340;SDS011;35209;51.050;13.678;2022-12-07T05:47:15;8.25;;;7.50;;
49340;SDS011;35209;51.050;13.678;2022-12-07T05:52:17;6.97;;;6.32;;
49340;SDS011;35209;51.050;13.678;2022-12-07T05:57:19;6.15;;;5.40;;
49340;SDS011;35209;51.050;13.678;2022-12-07T06:02:20;6.18;;;5.38;;
49340;SDS011;35209;51.050;13.678;2022-12-07T06:07:22;5.88;;;4.90;;
49340;SDS011;35209;51.050;13.678;2022-12-07T06:12:24;5.88;;;5.25;;
49340;SDS011;35209;51.050;13.678;2022-12-07T06:17:35;5.68;;;5.13;;
49340;SDS011;35209;51.050;13.678;2022-12-07T06:22:38;6.63;;;5.47;;
49340;SDS011;35209;51.050;13.678;2022-12-07T06:27:39;5.15;;;4.50;;
49340;SDS011;35209;51.050;13.678;2022-12-07T06:32:41;6.18;;;5.57;;
49340;SDS011;35209;51.050;13.678;2022-12-07T06:37:43;6.05;;;5.55;;
49340;SDS011;35209;51.050;13.678;2022-12-07T06:42:44;6.15;;;5.55;;
49340;SDS011;35209;51.050;13.678;2022-12-07T06:47:46;6.93;;;6.32;;
49340;SDS011;35209;51.050;13.678;2022-12-07T06:52:48;6.78;;;6.15;;
49340;SDS011;35209;51.050;13.678;2022-12-07T06:57:50;6.95;;;6.40;;
49340;SDS011;35209;51.050;13.678;2022-12-07T07:02:51;7.38;;;6.78;;
49340;SDS011;35209;51.050;13.678;2022-12-07T07:07:53;7.68;;;7.07;;
49340;SDS011;35209;51.050;13.678;2022-12-07T07:13:15;8.00;;;7.40;;
49340;SDS011;35209;51.050;13.678;2022-12-07T07:18:17;7.95;;;7.25;;
49340;SDS011;35209;51.050;13.678;2022-12-07T07:23:19;8.68;;;7.88;;
49340;SDS011;35209;51.050;13.678;2022-12-07T07:28:22;7.40;;;6.80;;
49340;SDS011;35209;51.050;13.678;2022-12-07T07:33:24;8.00;;;7.30;;
49340;SDS011;35209;51.050;13.678;2022-12-07T07:38:25;8.23;;;7.63;;
49340;SDS011;35209;51.050;13.678;2022-12-07T07:43:28;7.53;;;6.90;;
49340;SDS011;35209;51.050;13.678;2022-12-07T07:48:30;8.63;;;8.00;;
49340;SDS011;35209;51.050;13.678;2022-12-07T07:53:32;8.80;;;8.00;;
49340;SDS011;35209;51.050;13.678;2022-12-07T07:58:34;9.23;;;8.52;;
49340;SDS011;35209;51.050;13.678;2022-12-07T08:03:37;9.55;;;8.88;;
49340;SDS011;35209;51.050;13.678;2022-12-07T08:08:38;11.02;;;9.82;;
49340;SDS011;35209;51.050;13.678;2022-12-07T08:13:40;10.85;;;10.05;;
49340;SDS011;35209;51.050;13.678;2022-12-07T08:18:43;11.48;;;10.68;;
49340;SDS011;35209;51.050;13.678;2022-12-07T08:23:45;10.55;;;9.65;;
49340;SDS011;35209;51.050;13.678;2022-12-07T08:28:46;11.52;;;10.60;;
49340;SDS011;35209;51.050;13.678;2022-12-07T08:33:48;11.75;;;10.85;;
49340;SDS011;35209;51.050;13.678;2022-12-07T08:38:50;11.07;;;9.95;;
49340;SDS011;35209;51.050;13.678;2022-12-07T08:44:12;10.75;;;9.88;;
49340;SDS011;35209;51.050;13.678;2022-12-07T08:49:21;10.50;;;9.55;;
49340;SDS011;35209;51.050;13.678;2022-12-07T08:54:28;10.35;;;9.50;;
49340;SDS011;35209;51.050;13.678;2022-12-07T08:59:30;10.68;;;9.65;;
49340;SDS011;35209;51.050;13.678;2022-12-07T09:04:31;9.68;;;8.88;;
49340;SDS011;35209;51.050;13.678;2022-12-07T09:09:33;9.73;;;8.75;;
49340;SDS011;35209;51.050;13.678;2022-12-07T09:14:35;9.40;;;8.50;;
49340;SDS011;35209;51.050;13.678;2022-12-07T09:19:37;8.00;;;7.40;;
49340;SDS011;35209;51.050;13.678;2022-12-07T09:24:39;8.07;;;7.43;;
49340;SDS011;35209;51.050;13.678;2022-12-07T09:29:41;8.18;;;7.30;;
49340;SDS011;35209;51.050;13.678;2022-12-07T09:34:42;8.73;;;7.35;;
49340;SDS011;35209;51.050;13.678;2022-12-07T09:39:44;8.80;;;6.97;;
49340;SDS011;35209;51.050;13.678;2022-12-07T09:44:50;7.95;;;7.25;;
49340;SDS011;35209;51.050;13.678;2022-12-07T09:49:52;7.18;;;6.47;;
49340;SDS011;35209;51.050;13.678;2022-12-07T10:00:03;16.02;;;13.65;;
49340;SDS011;35209;51.050;13.678;2022-12-07T10:10:26;8.88;;;8.05;;
49340;SDS011;35209;51.050;13.678;2022-12-07T10:15:46;21.55;;;18.08;;
49340;SDS011;35209;51.050;13.678;2022-12-07T10:20:48;27.77;;;19.77;;
49340;SDS011;35209;51.050;13.678;2022-12-07T10:25:50;39.97;;;24.77;;
49340;SDS011;35209;51.050;13.678;2022-12-07T10:30:56;13.57;;;12.18;;
49340;SDS011;35209;51.050;13.678;2022-12-07T10:36:09;9.00;;;7.10;;
49340;SDS011;35209;51.050;13.678;2022-12-07T10:41:19;12.60;;;8.27;;
49340;SDS011;35209;51.050;13.678;2022-12-07T10:51:46;9.80;;;8.90;;
49340;SDS011;35209;51.050;13.678;2022-12-07T11:02:59;21.83;;;16.45;;
49340;SDS011;35209;51.050;13.678;2022-12-07T11:36:17;11.30;;;10.13;;
49340;SDS011;35209;51.050;13.678;2022-12-07T11:41:36;11.85;;;8.73;;
49340;SDS011;35209;51.050;13.678;2022-12-07T11:46:44;7.95;;;6.75;;
49340;SDS011;35209;51.050;13.678;2022-12-07T11:52:04;10.90;;;9.80;;
49340;SDS011;35209;51.050;13.678;2022-12-07T11:57:20;9.23;;;8.23;;
49340;SDS011;35209;51.050;13.678;2022-12-07T12:02:46;11.68;;;8.35;;
49340;SDS011;35209;51.050;13.678;2022-12-07T12:19:16;6.38;;;5.78;;
49340;SDS011;35209;51.050;13.678;2022-12-07T12:24:24;7.15;;;6.45;;
49340;SDS011;35209;51.050;13.678;2022-12-07T12:29:39;7.03;;;5.43;;
49340;SDS011;35209;51.050;13.678;2022-12-07T12:40:38;2.40;;;1.58;;
49340;SDS011;35209;51.050;13.678;2022-12-07T12:45:48;2.95;;;1.52;;
49340;SDS011;35209;51.050;13.678;2022-12-07T12:50:53;3.15;;;2.00;;
49340;SDS011;35209;51.050;13.678;2022-12-07T12:56:37;4.65;;;3.30;;
49340;SDS011;35209;51.050;13.678;2022-12-07T13:01:44;4.78;;;4.32;;
49340;SDS011;35209;51.050;13.678;2022-12-07T13:06:48;22.92;;;13.43;;
49340;SDS011;35209;51.050;13.678;2022-12-07T13:11:55;7.40;;;6.80;;
49340;SDS011;35209;51.050;13.678;2022-12-07T13:17:00;5.50;;;5.00;;
49340;SDS011;35209;51.050;13.678;2022-12-07T13:22:02;5.57;;;4.60;;
49340;SDS011;35209;51.050;13.678;2022-12-07T13:27:06;7.55;;;5.47;;
49340;SDS011;35209;51.050;13.678;2022-12-07T13:32:18;5.88;;;5.35;;
49340;SDS011;35209;51.050;13.678;2022-12-07T13:37:32;9.93;;;3.58;;
49340;SDS011;35209;51.050;13.678;2022-12-07T13:42:39;10.88;;;9.90;;
49340;SDS011;35209;51.050;13.678;2022-12-07T13:47:41;7.03;;;6.43;;
49340;SDS011;35209;51.050;13.678;2022-12-07T13:52:50;10.63;;;9.13;;
49340;SDS011;35209;51.050;13.678;2022-12-07T13:57:57;7.15;;;6.55;;
49340;SDS011;35209;51.050;13.678;2022-12-07T14:03:00;7.07;;;5.22;;
49340;SDS011;35209;51.050;13.678;2022-12-07T14:18:43;8.88;;;6.45;;
49340;SDS011;35209;51.050;13.678;2022-12-07T14:23:45;7.13;;;4.97;;
49340;SDS011;35209;51.050;13.678;2022-12-07T14:29:22;9.82;;;4.43;;
49340;SDS011;35209;51.050;13.678;2022-12-07T14:34:24;6.03;;;4.65;;
49340;SDS011;35209;51.050;13.678;2022-12-07T14:39:29;11.23;;;5.05;;
49340;SDS011;35209;51.050;13.678;2022-12-07T14:44:31;5.47;;;4.65;;
49340;SDS011;35209;51.050;13.678;2022-12-07T14:49:36;8.52;;;3.60;;
49340;SDS011;35209;51.050;13.678;2022-12-07T14:54:38;5.32;;;3.13;;
49340;SDS011;35209;51.050;13.678;2022-12-07T14:59:40;4.65;;;2.50;;
49340;SDS011;35209;51.050;13.678;2022-12-07T15:04:45;5.07;;;2.65;;
49340;SDS011;35209;51.050;13.678;2022-12-07T15:09:47;4.00;;;2.00;;
49340;SDS011;35209;51.050;13.678;2022-12-07T15:14:49;6.47;;;2.47;;
49340;SDS011;35209;51.050;13.678;2022-12-07T15:19:51;4.15;;;2.47;;
49340;SDS011;35209;51.050;13.678;2022-12-07T15:24:53;5.18;;;1.80;;
49340;SDS011;35209;51.050;13.678;2022-12-07T15:29:55;2.72;;;1.80;;
49340;SDS011;35209;51.050;13.678;2022-12-07T15:34:57;3.63;;;1.73;;
49340;SDS011;35209;51.050;13.678;2022-12-07T15:40:02;2.65;;;1.60;;
49340;SDS011;35209;51.050;13.678;2022-12-07T15:45:08;12.10;;;10.13;;
49340;SDS011;35209;51.050;13.678;2022-12-07T15:50:12;57.50;;;33.60;;
49340;SDS011;35209;51.050;13.678;2022-12-07T15:55:15;3.58;;;3.13;;
49340;SDS011;35209;51.050;13.678;2022-12-07T16:00:17;3.25;;;2.17;;
49340;SDS011;35209;51.050;13.678;2022-12-07T16:05:19;3.33;;;2.67;;
49340;SDS011;35209;51.050;13.678;2022-12-07T16:10:21;6.18;;;3.20;;
49340;SDS011;35209;51.050;13.678;2022-12-07T16:15:23;6.63;;;5.72;;
49340;SDS011;35209;51.050;13.678;2022-12-07T16:20:35;9.00;;;5.93;;
49340;SDS011;35209;51.050;13.678;2022-12-07T16:25:38;7.28;;;5.38;;
49340;SDS011;35209;51.050;13.678;2022-12-07T16:30:47;4.72;;;4.20;;
49340;SDS011;35209;51.050;13.678;2022-12-07T16:35:49;4.55;;;2.50;;
49340;SDS011;35209;51.050;13.678;2022-12-07T16:40:51;7.45;;;3.10;;
49340;SDS011;35209;51.050;13.678;2022-12-07T16:45:53;3.67;;;1.75;;
49340;SDS011;35209;51.050;13.678;2022-12-07T16:50:55;3.70;;;3.25;;
49340;SDS011;35209;51.050;13.678;2022-12-07T16:55:56;4.07;;;1.95;;
49340;SDS011;35209;51.050;13.678;2022-12-07T17:00:58;12.45;;;8.98;;
49340;SDS011;35209;51.050;13.678;2022-12-07T17:06:01;4.70;;;3.45;;
49340;SDS011;35209;51.050;13.678;2022-12-07T17:11:02;4.38;;;2.55;;
49340;SDS011;35209;51.050;13.678;2022-12-07T17:16:11;3.97;;;2.00;;
49340;SDS011;35209;51.050;13.678;2022-12-07T17:21:13;4.65;;;2.30;;
49340;SDS011;35209;51.050;13.678;2022-12-07T17:26:16;2.90;;;2.40;;
49340;SDS011;35209;51.050;13.678;2022-12-07T17:31:31;2.72;;;2.13;;
49340;SDS011;35209;51.050;13.678;2022-12-07T17:36:34;5.80;;;3.22;;
49340;SDS011;35209;51.050;13.678;2022-12-07T17:41:36;12.32;;;8.75;;
49340;SDS011;35209;51.050;13.678;2022-12-07T17:46:57;4.93;;;2.83;;
49340;SDS011;35209;51.050;13.678;2022-12-07T17:52:00;7.95;;;6.90;;
49340;SDS011;35209;51.050;13.678;2022-12-07T17:57:20;4.07;;;2.78;;
49340;SDS011;35209;51.050;13.678;2022-12-07T18:02:22;4.88;;;3.15;;
49340;SDS011;35209;51.050;13.678;2022-12-07T18:07:24;4.32;;;3.13;;
49340;SDS011;35209;51.050;13.678;2022-12-07T18:12:26;4.55;;;2.53;;
49340;SDS011;35209;51.050;13.678;2022-12-07T18:17:28;9.80;;;4.15;;
49340;SDS011;35209;51.050;13.678;2022-12-07T18:22:30;3.63;;;2.60;;
49340;SDS011;35209;51.050;13.678;2022-12-07T18:27:32;2.88;;;2.20;;
49340;SDS011;35209;51.050;13.678;2022-12-07T18:32:34;3.58;;;2.33;;
49340;SDS011;35209;51.050;13.678;2022-12-07T18:37:35;3.08;;;1.75;;
49340;SDS011;35209;51.050;13.678;2022-12-07T18:42:37;6.18;;;3.40;;
49340;SDS011;35209;51.050;13.678;2022-12-07T18:47:39;7.00;;;4.80;;
49340;SDS011;35209;51.050;13.678;2022-12-07T18:52:41;5.15;;;2.65;;
49340;SDS011;35209;51.050;13.678;2022-12-07T18:57:43;5.22;;;1.70;;
49340;SDS011;35209;51.050;13.678;2022-12-07T19:02:45;3.92;;;1.77;;
49340;SDS011;35209;51.050;13.678;2022-12-07T19:07:48;3.55;;;2.00;;
49340;SDS011;35209;51.050;13.678;2022-12-07T19:12:52;7.43;;;3.00;;
49340;SDS011;35209;51.050;13.678;2022-12-07T19:17:54;4.20;;;3.03;;
49340;SDS011;35209;51.050;13.678;2022-12-07T19:22:56;5.47;;;2.92;;
49340;SDS011;35209;51.050;13.678;2022-12-07T19:27:57;3.60;;;2.88;;
49340;SDS011;35209;51.050;13.678;2022-12-07T19:32:59;4.57;;;3.33;;
49340;SDS011;35209;51.050;13.678;2022-12-07T19:38:01;4.43;;;4.03;;
49340;SDS011;35209;51.050;13.678;2022-12-07T19:43:03;4.18;;;3.30;;
49340;SDS011;35209;51.050;13.678;2022-12-07T19:48:04;7.25;;;3.60;;
49340;SDS011;35209;51.050;13.678;2022-12-07T19:53:06;7.90;;;5.10;;
49340;SDS011;35209;51.050;13.678;2022-12-07T19:58:08;5.35;;;3.00;;
49340;SDS011;35209;51.050;13.678;2022-12-07T20:03:09;9.93;;;3.28;;
49340;SDS011;35209;51.050;13.678;2022-12-07T20:08:11;4.43;;;3.28;;
49340;SDS011;35209;51.050;13.678;2022-12-07T20:13:12;5.97;;;3.63;;
49340;SDS011;35209;51.050;13.678;2022-12-07T20:18:31;3.80;;;2.85;;
49340;SDS011;35209;51.050;13.678;2022-12-07T20:23:34;3.88;;;3.33;;
49340;SDS011;35209;51.050;13.678;2022-12-07T20:28:35;3.88;;;2.78;;
49340;SDS011;35209;51.050;13.678;2022-12-07T20:33:37;4.15;;;2.97;;
49340;SDS011;35209;51.050;13.678;2022-12-07T20:38:39;4.72;;;2.78;;
49340;SDS011;35209;51.050;13.678;2022-12-07T20:43:42;4.35;;;3.22;;
49340;SDS011;35209;51.050;13.678;2022-12-07T20:48:44;6.03;;;3.28;;
49340;SDS011;35209;51.050;13.678;2022-12-07T20:53:45;8.30;;;2.85;;
49340;SDS011;35209;51.050;13.678;2022-12-07T20:58:47;4.97;;;3.22;;
49340;SDS011;35209;51.050;13.678;2022-12-07T21:03:52;4.07;;;2.90;;
49340;SDS011;35209;51.050;13.678;2022-12-07T21:08:56;7.50;;;3.63;;
49340;SDS011;35209;51.050;13.678;2022-12-07T21:14:00;6.35;;;3.70;;
49340;SDS011;35209;51.050;13.678;2022-12-07T21:19:02;4.85;;;3.42;;
49340;SDS011;35209;51.050;13.678;2022-12-07T21:24:05;4.57;;;3.42;;
49340;SDS011;35209;51.050;13.678;2022-12-07T21:29:08;5.55;;;3.58;;
49340;SDS011;35209;51.050;13.678;2022-12-07T21:34:10;5.28;;;4.28;;
49340;SDS011;35209;51.050;13.678;2022-12-07T21:39:11;4.72;;;3.42;;
49340;SDS011;35209;51.050;13.678;2022-12-07T21:44:13;3.92;;;3.22;;
49340;SDS011;35209;51.050;13.678;2022-12-07T21:49:15;6.60;;;3.13;;
49340;SDS011;35209;51.050;13.678;2022-12-07T21:54:17;5.72;;;2.90;;
49340;SDS011;35209;51.050;13.678;2022-12-07T21:59:26;4.03;;;3.17;;
49340;SDS011;35209;51.050;13.678;2022-12-07T22:04:27;5.95;;;4.18;;
49340;SDS011;35209;51.050;13.678;2022-12-07T22:09:29;6.20;;;3.83;;
49340;SDS011;35209;51.050;13.678;2022-12-07T22:14:31;5.65;;;3.25;;
49340;SDS011;35209;51.050;13.678;2022-12-07T22:19:51;6.93;;;3.72;;
49340;SDS011;35209;51.050;13.678;2022-12-07T22:24:52;4.93;;;3.70;;
49340;SDS011;35209;51.050;13.678;2022-12-07T22:29:54;6.50;;;3.67;;
49340;SDS011;35209;51.050;13.678;2022-12-07T22:34:56;5.22;;;4.07;;
49340;SDS011;35209;51.050;13.678;2022-12-07T22:39:57;7.28;;;4.03;;
49340;SDS011;35209;51.050;13.678;2022-12-07T22:44:59;5.60;;;3.03;;
49340;SDS011;35209;51.050;13.678;2022-12-07T22:50:01;4.13;;;2.80;;
49340;SDS011;35209;51.050;13.678;2022-12-07T22:55:06;7.95;;;3.55;;
49340;SDS011;35209;51.050;13.678;2022-12-07T23:00:08;6.25;;;3.85;;
49340;SDS011;35209;51.050;13.678;2022-12-07T23:05:10;5.25;;;2.92;;
49340;SDS011;35209;51.050;13.678;2022-12-07T23:10:12;5.78;;;2.90;;
49340;SDS011;35209;51.050;13.678;2022-12-07T23:15:15;3.80;;;3.05;;
49340;SDS011;35209;51.050;13.678;2022-12-07T23:20:17;3.72;;;2.97;;
49340;SDS011;35209;51.050;13.678;2022-12-07T23:25:19;3.63;;;2.70;;
49340;SDS011;35209;51.050;13.678;2022-12-07T23:30:20;5.68;;;3.83;;
49340;SDS011;35209;51.050;13.678;2022-12-07T23:35:22;4.78;;;3.30;;
49340;SDS011;35209;51.050;13.678;2022-12-07T23:40:24;7.75;;;3.22;;
49340;SDS011;35209;51.050;13.678;2022-12-07T23:45:25;5.47;;;3.35;;
49340;SDS011;35209;51.050;13.678;2022-12-07T23:50:27;5.03;;;3.50;;
49340;SDS011;35209;51.050;13.678;2022-12-07T23:55:28;4.50;;;3.13;;
